Time,TemperatureF,DewpointF,PressureIn,WindDirection,WindDirectionDegrees,WindSpeedMPH,WindSpeedGustMPH,Humidity,HourlyPrecipIn,Conditions,Clouds,dailyrainin,SoftwareType,DateUTC
2013-05-16 00:00:00,55.4,49.0,29.96,NNW,330,1.0,5.0,79,0.00,,,0.00,weatherlink.com 1.10,2013-05-16 07:00:00,
2013-05-16 00:15:00,56.0,49.0,29.95,North,357,1.0,8.0,78,0.00,,,0.00,weatherlink.com 1.10,2013-05-16 07:15:00,
2013-05-16 00:30:00,56.6,49.0,29.95,NE,44,4.0,8.0,77,0.00,,,0.00,weatherlink.com 1.10,2013-05-16 07:30:00,
2013-05-16 00:45:00,56.7,50.0,29.95,NNE,23,1.0,6.0,77,0.00,,,0.00,weatherlink.com 1.10,2013-05-16 07:45:00,
2013-05-16 01:00:00,56.6,49.0,29.96,East,96,1.0,3.0,77,0.00,,,0.00,weatherlink.com 1.10,2013-05-16 08:00:00,
2013-05-16 01:15:00,56.7,50.0,29.95,NNW,345,0.0,6.0,77,0.00,,,0.00,weatherlink.com 1.10,2013-05-16 08:15:00,
2013-05-16 01:30:00,56.6,50.0,29.95,NE,44,1.0,8.0,78,0.00,,,0.00,weatherlink.com 1.10,2013-05-16 08:30:00,
2013-05-16 01:45:00,56.4,50.0,29.95,ENE,62,2.0,7.0,78,0.00,,,0.00,weatherlink.com 1.10,2013-05-16 08:45:00,
2013-05-16 02:00:00,56.2,50.0,29.94,NE,34,3.0,8.0,79,0.00,,,0.00,weatherlink.com 1.10,2013-05-16 09:00:00,
2013-05-16 02:15:00,56.3,50.0,29.93,North,10,0.0,8.0,79,0.00,,,0.00,weatherlink.com 1.10,2013-05-16 09:15:00,
2013-05-16 02:30:00,56.4,50.0,29.93,NE,35,5.0,7.0,79,0.00,,,0.00,weatherlink.com 1.10,2013-05-16 09:30:00,
2013-05-16 02:45:00,56.4,50.0,29.94,NNE,30,1.0,6.0,79,0.00,,,0.00,weatherlink.com 1.10,2013-05-16 09:45:00,
2013-05-16 03:00:00,56.5,50.0,29.94,NNE,20,2.0,8.0,79,0.00,,,0.00,weatherlink.com 1.10,2013-05-16 10:00:00,
2013-05-16 03:15:00,56.4,50.0,29.94,SE,127,2.0,9.0,80,0.00,,,0.00,weatherlink.com 1.10,2013-05-16 10:15:00,
2013-05-16 03:30:00,56.4,50.0,29.93,ENE,65,1.0,9.0,80,0.00,,,0.00,weatherlink.com 1.10,2013-05-16 10:30:00,
2013-05-16 03:45:00,56.5,50.0,29.93,NW,309,2.0,9.0,80,0.00,,,0.00,weatherlink.com 1.10,2013-05-16 10:45:00,
2013-05-16 04:00:00,56.4,50.0,29.93,NE,38,1.0,7.0,80,0.00,,,0.00,weatherlink.com 1.10,2013-05-16 11:00:00,
2013-05-16 04:15:00,56.4,50.0,29.93,NNE,13,0.0,7.0,80,0.00,,,0.00,weatherlink.com 1.10,2013-05-16 11:15:00,
2013-05-16 04:30:00,56.3,50.0,29.93,NE,40,1.0,6.0,80,0.00,,,0.00,weatherlink.com 1.10,2013-05-16 11:30:00,
2013-05-16 04:45:00,56.3,50.0,29.93,NNE,12,0.0,9.0,80,0.00,,,0.00,weatherlink.com 1.10,2013-05-16 11:45:00,
2013-05-16 05:00:00,56.3,50.0,29.93,NE,54,2.0,7.0,80,0.00,,,0.00,weatherlink.com 1.10,2013-05-16 12:00:00,
2013-05-16 05:15:00,56.3,50.0,29.94,ENE,63,1.0,7.0,80,0.00,,,0.00,weatherlink.com 1.10,2013-05-16 12:15:00,
2013-05-16 05:30:00,56.6,51.0,29.93,NE,37,1.0,4.0,80,0.00,,,0.00,weatherlink.com 1.10,2013-05-16 12:30:00,
2013-05-16 05:45:00,56.7,50.0,29.94,NE,53,1.0,7.0,79,0.00,,,0.00,weatherlink.com 1.10,2013-05-16 12:45:00,
2013-05-16 06:00:00,56.8,51.0,29.94,NNE,25,2.0,8.0,80,0.00,,,0.00,weatherlink.com 1.10,2013-05-16 13:00:00,
2013-05-16 06:16:00,56.7,51.0,29.95,NE,44,1.0,9.0,80,0.00,,,0.00,weatherlink.com 1.10,2013-05-16 13:16:00,
2013-05-16 06:31:00,56.7,51.0,29.95,NE,49,1.0,4.0,80,0.00,,,0.00,weatherlink.com 1.10,2013-05-16 13:31:00,
2013-05-16 06:46:00,57.0,51.0,29.95,NNE,17,3.0,8.0,80,0.00,,,0.00,weatherlink.com 1.10,2013-05-16 13:46:00,
2013-05-16 07:01:00,57.0,51.0,29.96,NNE,24,3.0,7.0,79,0.00,,,0.00,weatherlink.com 1.10,2013-05-16 14:01:00,
2013-05-16 07:16:00,56.8,51.0,29.97,NNE,23,8.0,8.0,81,0.00,,,0.00,weatherlink.com 1.10,2013-05-16 14:16:00,
2013-05-16 07:31:00,56.8,51.0,29.97,NE,48,2.0,6.0,82,0.00,,,0.00,weatherlink.com 1.10,2013-05-16 14:31:00,
2013-05-16 07:46:00,57.2,52.0,29.97,NE,56,0.0,7.0,82,0.00,,,0.00,weatherlink.com 1.10,2013-05-16 14:46:00,
2013-05-16 08:01:00,57.9,52.0,29.97,ENE,70,0.0,4.0,81,0.00,,,0.00,weatherlink.com 1.10,2013-05-16 15:01:00,
2013-05-16 08:16:00,58.6,52.0,29.97,North,11,3.0,4.0,80,0.00,,,0.00,weatherlink.com 1.10,2013-05-16 15:16:00,
2013-05-16 08:31:00,59.3,53.0,29.98,NNW,342,4.0,5.0,79,0.00,,,0.00,weatherlink.com 1.10,2013-05-16 15:31:00,
2013-05-16 08:46:00,60.4,54.0,29.98,East,79,0.0,6.0,78,0.00,,,0.00,weatherlink.com 1.10,2013-05-16 15:46:00,
2013-05-16 09:01:00,61.4,54.0,29.98,NE,40,0.0,4.0,76,0.00,,,0.00,weatherlink.com 1.10,2013-05-16 16:01:00,
2013-05-16 09:16:00,62.4,54.0,29.98,NE,42,1.0,5.0,74,0.00,,,0.00,weatherlink.com 1.10,2013-05-16 16:16:00,
2013-05-16 09:31:00,62.1,54.0,29.98,NNE,13,2.0,7.0,75,0.00,,,0.00,weatherlink.com 1.10,2013-05-16 16:31:00,
2013-05-16 09:46:00,63.3,55.0,29.97,SE,131,1.0,9.0,73,0.00,,,0.00,weatherlink.com 1.10,2013-05-16 16:46:00,
2013-05-16 10:01:00,64.3,54.0,29.97,NNE,22,4.0,7.0,70,0.00,,,0.00,weatherlink.com 1.10,2013-05-16 17:01:00,
2013-05-16 10:16:00,64.9,55.0,29.97,NNE,21,1.0,4.0,70,0.00,,,0.00,weatherlink.com 1.10,2013-05-16 17:16:00,
2013-05-16 10:31:00,64.5,54.0,29.97,NE,36,3.0,6.0,69,0.00,,,0.00,weatherlink.com 1.10,2013-05-16 17:31:00,
2013-05-16 10:46:00,65.1,55.0,29.96,NNE,13,0.0,5.0,69,0.00,,,0.00,weatherlink.com 1.10,2013-05-16 17:46:00,
2013-05-16 11:01:00,66.7,55.0,29.96,NNE,32,2.0,8.0,66,0.00,,,0.00,weatherlink.com 1.10,2013-05-16 18:01:00,
2013-05-16 11:16:00,68.3,56.0,29.96,NNE,17,2.0,9.0,64,0.00,,,0.00,weatherlink.com 1.10,2013-05-16 18:16:00,
2013-05-16 11:31:00,68.2,55.0,29.97,NE,47,4.0,10.0,62,0.00,,,0.00,weatherlink.com 1.10,2013-05-16 18:31:00,
2013-05-16 11:46:00,67.1,54.0,29.97,North,360,2.0,10.0,63,0.00,,,0.00,weatherlink.com 1.10,2013-05-16 18:46:00,
2013-05-16 12:01:00,66.6,54.0,29.97,NNE,27,2.0,10.0,65,0.00,,,0.00,weatherlink.com 1.10,2013-05-16 19:01:00,
2013-05-16 12:16:00,67.6,54.0,29.97,NNE,32,3.0,8.0,63,0.00,,,0.00,weatherlink.com 1.10,2013-05-16 19:16:00,
2013-05-16 12:31:00,70.1,55.0,29.96,NNE,31,0.0,8.0,60,0.00,,,0.00,weatherlink.com 1.10,2013-05-16 19:31:00,
2013-05-16 12:46:00,71.3,54.0,29.96,NE,45,2.0,8.0,55,0.00,,,0.00,weatherlink.com 1.10,2013-05-16 19:46:00,
2013-05-16 13:01:00,72.6,54.0,29.95,ENE,67,3.0,7.0,52,0.00,,,0.00,weatherlink.com 1.10,2013-05-16 20:01:00,
2013-05-16 13:16:00,72.5,54.0,29.95,NE,41,2.0,7.0,52,0.00,,,0.00,weatherlink.com 1.10,2013-05-16 20:16:00,
2013-05-16 13:31:00,72.6,53.0,29.95,NE,50,2.0,9.0,51,0.00,,,0.00,weatherlink.com 1.10,2013-05-16 20:31:00,
2013-05-16 13:46:00,70.6,51.0,29.95,NE,44,11.0,13.0,51,0.00,,,0.00,weatherlink.com 1.10,2013-05-16 20:46:00,
2013-05-16 14:02:00,69.4,50.0,29.95,NE,51,5.0,12.0,51,0.00,,,0.00,weatherlink.com 1.10,2013-05-16 21:02:00,
2013-05-16 14:17:00,69.9,51.0,29.95,NNW,339,3.0,9.0,51,0.00,,,0.00,weatherlink.com 1.10,2013-05-16 21:17:00,
2013-05-16 14:32:00,68.4,49.0,29.95,NE,37,4.0,11.0,51,0.00,,,0.00,weatherlink.com 1.10,2013-05-16 21:32:00,
2013-05-16 14:47:00,69.4,49.0,29.95,East,99,3.0,9.0,48,0.00,,,0.00,weatherlink.com 1.10,2013-05-16 21:47:00,
2013-05-16 15:02:00,68.5,48.0,29.95,ENE,57,6.0,13.0,48,0.00,,,0.00,weatherlink.com 1.10,2013-05-16 22:02:00,
2013-05-16 15:17:00,68.5,48.0,29.94,North,11,6.0,11.0,48,0.00,,,0.00,weatherlink.com 1.10,2013-05-16 22:17:00,
2013-05-16 15:32:00,67.6,48.0,29.94,NE,46,3.0,11.0,50,0.00,,,0.00,weatherlink.com 1.10,2013-05-16 22:32:00,
2013-05-16 15:47:00,67.1,49.0,29.93,NE,49,4.0,12.0,52,0.00,,,0.00,weatherlink.com 1.10,2013-05-16 22:47:00,
2013-05-16 16:02:00,67.3,49.0,29.93,NNW,345,3.0,13.0,52,0.00,,,0.00,weatherlink.com 1.10,2013-05-16 23:02:00,
2013-05-16 16:17:00,67.4,49.0,29.93,East,94,3.0,10.0,52,0.00,,,0.00,weatherlink.com 1.10,2013-05-16 23:17:00,
2013-05-16 16:32:00,67.3,48.0,29.93,North,11,1.0,13.0,51,0.00,,,0.00,weatherlink.com 1.10,2013-05-16 23:32:00,
2013-05-16 16:47:00,66.8,49.0,29.92,NNE,28,10.0,11.0,53,0.00,,,0.00,weatherlink.com 1.10,2013-05-16 23:47:00,
2013-05-16 17:02:00,66.5,49.0,29.92,North,6,7.0,11.0,54,0.00,,,0.00,weatherlink.com 1.10,2013-05-17 00:02:00,
2013-05-16 17:17:00,65.7,49.0,29.92,East,91,5.0,12.0,56,0.00,,,0.00,weatherlink.com 1.10,2013-05-17 00:17:00,
2013-05-16 17:32:00,63.6,49.0,29.92,North,2,3.0,13.0,59,0.00,,,0.00,weatherlink.com 1.10,2013-05-17 00:32:00,
2013-05-16 17:47:00,62.3,49.0,29.92,East,84,6.0,13.0,63,0.00,,,0.00,weatherlink.com 1.10,2013-05-17 00:47:00,
2013-05-16 18:02:00,61.8,49.0,29.92,NE,53,2.0,16.0,64,0.00,,,0.00,weatherlink.com 1.10,2013-05-17 01:02:00,
2013-05-16 18:17:00,61.3,49.0,29.91,NNE,22,10.0,12.0,65,0.00,,,0.00,weatherlink.com 1.10,2013-05-17 01:17:00,
2013-05-16 18:32:00,60.6,50.0,29.92,NNE,16,5.0,14.0,67,0.00,,,0.00,weatherlink.com 1.10,2013-05-17 01:32:00,
2013-05-16 18:47:00,59.8,50.0,29.92,NNE,30,6.0,15.0,69,0.00,,,0.00,weatherlink.com 1.10,2013-05-17 01:47:00,
2013-05-16 19:02:00,59.3,50.0,29.92,NE,37,2.0,14.0,70,0.00,,,0.00,weatherlink.com 1.10,2013-05-17 02:02:00,
2013-05-16 19:17:00,59.0,49.0,29.93,NE,42,2.0,11.0,69,0.00,,,0.00,weatherlink.com 1.10,2013-05-17 02:17:00,
2013-05-16 19:32:00,58.2,49.0,29.92,NNW,347,4.0,12.0,71,0.00,,,0.00,weatherlink.com 1.10,2013-05-17 02:32:00,
2013-05-16 19:47:00,57.3,49.0,29.92,East,85,1.0,8.0,74,0.00,,,0.00,weatherlink.com 1.10,2013-05-17 02:47:00,
2013-05-16 20:02:00,56.6,49.0,29.93,NE,41,3.0,10.0,76,0.00,,,0.00,weatherlink.com 1.10,2013-05-17 03:02:00,
2013-05-16 20:17:00,56.2,49.0,29.93,NE,39,5.0,12.0,76,0.00,,,0.00,weatherlink.com 1.10,2013-05-17 03:17:00,
2013-05-16 20:32:00,55.8,48.0,29.93,NNW,345,3.0,11.0,74,0.00,,,0.00,weatherlink.com 1.10,2013-05-17 03:32:00,
2013-05-16 20:47:00,55.3,48.0,29.93,NE,51,3.0,10.0,76,0.00,,,0.00,weatherlink.com 1.10,2013-05-17 03:47:00,
2013-05-16 21:02:00,55.2,48.0,29.94,NNE,26,2.0,9.0,77,0.00,,,0.00,weatherlink.com 1.10,2013-05-17 04:02:00,
2013-05-16 21:17:00,55.1,48.0,29.94,North,11,1.0,13.0,77,0.00,,,0.00,weatherlink.com 1.10,2013-05-17 04:17:00,
2013-05-16 21:32:00,55.1,48.0,29.94,East,83,3.0,7.0,76,0.00,,,0.00,weatherlink.com 1.10,2013-05-17 04:32:00,
2013-05-16 21:47:00,55.0,48.0,29.95,ENE,68,3.0,9.0,77,0.00,,,0.00,weatherlink.com 1.10,2013-05-17 04:47:00,
2013-05-16 22:02:00,54.7,48.0,29.95,NE,49,2.0,7.0,79,0.00,,,0.00,weatherlink.com 1.10,2013-05-17 05:02:00,
2013-05-16 22:17:00,54.4,48.0,29.95,NE,42,4.0,7.0,80,0.00,,,0.00,weatherlink.com 1.10,2013-05-17 05:17:00,
2013-05-16 22:32:00,54.1,48.0,29.95,NNW,347,6.0,8.0,80,0.00,,,0.00,weatherlink.com 1.10,2013-05-17 05:32:00,
2013-05-16 22:47:00,54.0,48.0,29.95,SW,229,0.0,4.0,80,0.00,,,0.00,weatherlink.com 1.10,2013-05-17 05:47:00,
2013-05-16 23:02:00,53.9,48.0,29.95,NNE,20,4.0,6.0,81,0.00,,,0.00,weatherlink.com 1.10,2013-05-17 06:02:00,
2013-05-16 23:17:00,53.9,48.0,29.94,North,8,2.0,6.0,81,0.00,,,0.00,weatherlink.com 1.10,2013-05-17 06:17:00,
2013-05-16 23:32:00,53.9,48.0,29.94,NNE,23,1.0,6.0,80,0.00,,,0.00,weatherlink.com 1.10,2013-05-17 06:32:00,
2013-05-16 23:47:00,53.8,48.0,29.94,NE,37,2.0,6.0,80,0.00,,,0.00,weatherlink.com 1.10,2013-05-17 06:47:00,